createdAt,value
2018-07-15T00:00:29.011Z,22.67
2018-07-15T00:02:58.042Z,22.62
2018-07-15T00:05:27.061Z,22.57
2018-07-15T00:07:56.040Z,22.53
2018-07-15T00:10:25.065Z,22.52
2018-07-15T00:12:54.118Z,22.46
2018-07-15T00:15:23.185Z,22.51
2018-07-15T00:17:52.360Z,22.52
2018-07-15T00:20:21.326Z,22.51
2018-07-15T00:22:50.340Z,22.49
2018-07-15T00:25:19.316Z,22.53
2018-07-15T00:27:48.336Z,22.52
2018-07-15T00:30:17.391Z,22.59
2018-07-15T00:32:46.406Z,22.55
2018-07-15T00:35:15.436Z,22.49
2018-07-15T00:37:44.424Z,22.51
2018-07-15T00:40:13.514Z,22.51
2018-07-15T00:42:42.478Z,22.44
2018-07-15T00:45:11.457Z,22.48
2018-07-15T00:47:40.484Z,22.44
2018-07-15T00:50:09.565Z,22.45
2018-07-15T00:52:38.543Z,22.40
2018-07-15T00:55:07.499Z,22.35
2018-07-15T00:57:36.496Z,22.33
2018-07-15T01:00:05.756Z,22.31
2018-07-15T01:02:35.022Z,22.31
2018-07-15T01:05:03.989Z,22.32
2018-07-15T01:07:33.020Z,22.26
2018-07-15T01:10:02.340Z,22.20
2018-07-15T01:12:31.311Z,22.22
2018-07-15T01:15:00.287Z,22.25
2018-07-15T01:17:29.249Z,22.26
2018-07-15T01:19:58.252Z,22.24
2018-07-15T01:22:27.230Z,22.17
2018-07-15T01:24:56.312Z,22.10
2018-07-15T01:27:25.399Z,22.10
2018-07-15T01:29:54.409Z,22.07
2018-07-15T01:32:23.395Z,22.05
2018-07-15T01:34:52.485Z,22.09
2018-07-15T01:37:21.448Z,22.08
2018-07-15T01:39:50.457Z,22.04
2018-07-15T01:42:19.441Z,21.99
2018-07-15T01:44:48.518Z,21.98
2018-07-15T01:47:17.645Z,21.94
2018-07-15T01:49:46.697Z,21.89
2018-07-15T01:52:15.727Z,21.79
2018-07-15T01:54:44.753Z,21.79
2018-07-15T01:57:13.842Z,21.84
2018-07-15T01:59:42.933Z,21.82
2018-07-15T02:02:11.932Z,21.85
2018-07-15T02:04:41.010Z,21.82
2018-07-15T02:07:09.989Z,21.78
2018-07-15T02:09:39.101Z,21.75
2018-07-15T02:12:08.092Z,21.74
2018-07-15T02:14:37.122Z,21.68
2018-07-15T02:17:06.111Z,21.64
2018-07-15T02:19:35.084Z,21.62
2018-07-15T02:22:04.118Z,21.59
2018-07-15T02:24:33.167Z,21.54
2018-07-15T02:27:02.198Z,21.56
2018-07-15T02:29:31.160Z,21.56
2018-07-15T02:32:00.312Z,21.59
2018-07-15T02:34:29.329Z,21.54
2018-07-15T02:36:58.301Z,21.47
2018-07-15T02:39:27.391Z,21.46
2018-07-15T02:41:56.361Z,21.51
2018-07-15T02:44:25.398Z,21.48
2018-07-15T02:46:54.370Z,21.47
2018-07-15T02:49:23.446Z,21.49
2018-07-15T02:51:52.494Z,21.55
2018-07-15T02:54:21.529Z,21.53
2018-07-15T02:56:50.530Z,21.50
2018-07-15T02:59:19.539Z,21.48
2018-07-15T03:01:48.540Z,21.49
2018-07-15T03:04:17.561Z,21.49
2018-07-15T03:06:46.753Z,21.43
2018-07-15T03:09:15.785Z,21.49
2018-07-15T03:11:44.809Z,21.48
2018-07-15T03:14:13.835Z,21.51
2018-07-15T03:16:42.918Z,21.51
2018-07-15T03:19:11.942Z,21.57
2018-07-15T03:21:41.030Z,21.56
2018-07-15T03:24:10.144Z,21.61
2018-07-15T03:26:39.102Z,21.68
2018-07-15T03:29:08.064Z,21.71
2018-07-15T03:31:37.029Z,21.74
2018-07-15T03:34:06.166Z,21.78
2018-07-15T03:36:35.121Z,21.84
2018-07-15T03:39:04.881Z,21.94
2018-07-15T03:41:33.850Z,21.98
2018-07-15T03:44:02.807Z,22.07
2018-07-15T03:46:31.805Z,22.19
2018-07-15T03:49:00.839Z,22.28
2018-07-15T03:51:29.919Z,22.40
2018-07-15T03:53:58.949Z,22.50
2018-07-15T03:56:28.000Z,22.62
2018-07-15T03:58:57.065Z,22.83
2018-07-15T04:01:26.108Z,22.83
2018-07-15T04:03:55.070Z,22.85
2018-07-15T04:06:24.052Z,22.92
2018-07-15T04:08:53.995Z,23.17
2018-07-15T04:11:22.971Z,23.60
2018-07-15T04:13:52.104Z,23.91
2018-07-15T04:16:21.134Z,25.68
2018-07-15T04:18:50.197Z,27.14
2018-07-15T04:21:19.225Z,27.80
2018-07-15T04:23:48.366Z,29.65
2018-07-15T04:26:17.404Z,31.56
2018-07-15T04:28:46.348Z,33.14
2018-07-15T04:31:15.322Z,34.57
2018-07-15T04:33:44.334Z,35.92
2018-07-15T04:36:13.356Z,36.56
2018-07-15T04:38:42.381Z,37.35
2018-07-15T04:41:11.372Z,37.92
2018-07-15T04:43:40.438Z,38.03
2018-07-15T04:46:09.476Z,38.51
2018-07-15T04:48:38.524Z,39.13
2018-07-15T04:51:07.525Z,39.34
2018-07-15T04:53:36.606Z,39.30
2018-07-15T04:56:05.577Z,39.64
2018-07-15T04:58:34.624Z,39.87
2018-07-15T05:01:03.812Z,40.02
2018-07-15T05:03:32.881Z,39.86
2018-07-15T05:06:02.030Z,39.78
2018-07-15T05:08:31.125Z,39.68
2018-07-15T05:11:00.092Z,39.89
2018-07-15T05:13:29.075Z,39.98
2018-07-15T05:15:58.048Z,40.18
2018-07-15T05:18:27.060Z,39.59
2018-07-15T05:20:56.016Z,39.96
2018-07-15T05:23:24.998Z,39.59
2018-07-15T05:25:54.029Z,39.84
2018-07-15T05:28:23.049Z,40.77
2018-07-15T05:30:52.065Z,40.72
2018-07-15T05:33:21.062Z,40.65
2018-07-15T05:35:50.020Z,40.67
2018-07-15T05:38:19.078Z,40.59
2018-07-15T05:40:48.037Z,40.02
2018-07-15T05:43:17.060Z,40.11
2018-07-15T05:45:46.147Z,40.52
2018-07-15T05:48:15.131Z,40.28
2018-07-15T05:50:44.060Z,40.65
2018-07-15T05:53:13.136Z,41.27
2018-07-15T05:55:42.110Z,41.62
2018-07-15T05:58:11.179Z,41.32
2018-07-15T06:00:40.213Z,41.17
2018-07-15T06:03:09.167Z,40.85
2018-07-15T06:05:38.208Z,41.16
2018-07-15T06:08:07.178Z,40.74
2018-07-15T06:10:36.300Z,41.71
2018-07-15T06:13:05.296Z,41.43
2018-07-15T06:15:34.382Z,40.07
2018-07-15T06:18:03.425Z,40.11
2018-07-15T06:20:32.504Z,39.31
2018-07-15T06:23:01.529Z,39.05
2018-07-15T06:25:30.508Z,39.00
2018-07-15T06:27:59.584Z,38.28
2018-07-15T06:30:28.577Z,38.42
2018-07-15T06:32:57.524Z,38.41
2018-07-15T06:35:26.562Z,38.39
2018-07-15T06:37:55.518Z,37.93
2018-07-15T06:40:24.510Z,37.95
2018-07-15T06:42:53.449Z,37.36
2018-07-15T06:45:22.535Z,36.23
2018-07-15T06:47:51.606Z,35.65
2018-07-15T06:50:20.656Z,35.50
2018-07-15T06:52:49.766Z,35.55
2018-07-15T06:55:18.846Z,35.26
2018-07-15T06:57:47.840Z,35.52
2018-07-15T07:00:16.896Z,35.65
2018-07-15T07:02:45.926Z,35.71
2018-07-15T07:05:14.925Z,34.66
2018-07-15T07:07:44.000Z,33.93
2018-07-15T07:10:12.935Z,34.84
2018-07-15T07:12:42.021Z,36.02
2018-07-15T07:15:10.972Z,35.63
2018-07-15T07:17:39.932Z,35.65
2018-07-15T07:20:08.901Z,35.32
2018-07-15T07:22:37.984Z,35.02
2018-07-15T07:25:07.134Z,35.22
2018-07-15T07:27:36.120Z,34.59
2018-07-15T07:30:05.120Z,34.49
2018-07-15T07:32:34.261Z,34.66
2018-07-15T07:35:03.318Z,34.25
2018-07-15T07:37:32.276Z,34.34
2018-07-15T07:40:01.346Z,34.06
2018-07-15T07:42:30.374Z,34.48
2018-07-15T07:44:59.400Z,34.65
2018-07-15T07:47:28.385Z,34.88
2018-07-15T07:49:57.766Z,34.82
2018-07-15T07:52:26.865Z,34.90
2018-07-15T07:54:55.848Z,34.51
2018-07-15T07:57:24.890Z,34.07
2018-07-15T07:59:53.909Z,33.46
2018-07-15T08:02:22.911Z,33.49
2018-07-15T08:04:51.994Z,33.45
2018-07-15T08:07:21.066Z,33.02
2018-07-15T08:09:50.104Z,32.89
2018-07-15T08:12:19.095Z,32.84
2018-07-15T08:14:48.071Z,32.78
2018-07-15T08:17:17.102Z,32.89
2018-07-15T08:19:46.136Z,32.71
2018-07-15T08:22:15.093Z,32.39
2018-07-15T08:24:44.179Z,32.18
2018-07-15T08:27:13.153Z,32.21
2018-07-15T08:30:52.518Z,31.60
2018-07-15T08:33:21.632Z,31.44
2018-07-15T08:35:50.661Z,31.12
2018-07-15T08:38:19.710Z,31.34
2018-07-15T08:40:48.810Z,31.57
2018-07-15T08:43:17.750Z,31.69
2018-07-15T08:45:46.824Z,31.67
2018-07-15T08:48:15.805Z,31.39
2018-07-15T08:50:44.881Z,31.38
2018-07-15T08:53:13.892Z,31.43
2018-07-15T08:55:43.253Z,31.28
2018-07-15T08:58:12.308Z,31.21
2018-07-15T09:00:41.332Z,31.32
2018-07-15T09:03:10.291Z,31.36
2018-07-15T09:05:39.300Z,31.39
2018-07-15T09:08:08.524Z,31.22
2018-07-15T09:10:37.952Z,31.15
2018-07-15T09:13:06.972Z,31.32
2018-07-15T09:15:36.093Z,31.30
2018-07-15T09:18:05.180Z,31.39
2018-07-15T09:20:34.253Z,31.19
2018-07-15T09:23:03.245Z,31.28
2018-07-15T09:25:32.189Z,31.48
2018-07-15T09:28:01.263Z,31.33
2018-07-15T09:30:30.217Z,31.61
2018-07-15T09:32:59.226Z,31.91
2018-07-15T09:35:28.376Z,31.87
2018-07-15T09:37:57.416Z,32.00
2018-07-15T09:40:26.404Z,32.21
2018-07-15T09:42:55.460Z,32.42
2018-07-15T09:45:24.541Z,31.91
2018-07-15T09:47:53.524Z,32.08
2018-07-15T09:50:22.549Z,32.33
2018-07-15T09:52:51.581Z,32.78
2018-07-15T09:55:20.678Z,32.97
2018-07-15T09:57:49.753Z,33.25
2018-07-15T10:00:24.017Z,33.20
2018-07-15T10:02:53.024Z,33.67
2018-07-15T10:05:22.009Z,33.77
2018-07-15T10:07:51.026Z,33.52
2018-07-15T10:10:20.080Z,33.16
2018-07-15T10:12:49.196Z,33.78
2018-07-15T10:15:18.285Z,34.29
2018-07-15T10:17:47.317Z,34.57
2018-07-15T10:20:16.277Z,34.65
2018-07-15T10:22:45.264Z,34.40
2018-07-15T10:25:14.277Z,34.54
2018-07-15T10:27:43.235Z,34.79
2018-07-15T10:30:12.228Z,35.28
2018-07-15T10:32:41.312Z,35.40
2018-07-15T10:35:10.400Z,35.10
2018-07-15T10:37:39.348Z,35.46
2018-07-15T10:40:08.479Z,35.57
2018-07-15T10:42:37.492Z,35.52
2018-07-15T10:45:06.465Z,35.81
2018-07-15T10:47:35.486Z,35.83
2018-07-15T10:50:04.460Z,36.61
2018-07-15T10:52:33.436Z,36.69
2018-07-15T10:55:02.481Z,36.61
2018-07-15T10:57:31.526Z,36.65
2018-07-15T11:00:00.512Z,36.30
2018-07-15T11:02:29.481Z,36.45
2018-07-15T11:04:58.560Z,36.46
2018-07-15T11:07:27.551Z,36.71
2018-07-15T11:09:56.589Z,37.08
2018-07-15T11:12:25.608Z,37.58
2018-07-15T11:14:54.632Z,37.07
2018-07-15T11:17:23.705Z,36.72
2018-07-15T11:19:52.796Z,37.71
2018-07-15T11:22:21.986Z,38.42
2018-07-15T11:24:50.907Z,38.12
2018-07-15T11:27:19.945Z,37.41
2018-07-15T11:29:48.898Z,37.80
2018-07-15T11:32:17.873Z,37.89
2018-07-15T11:34:46.873Z,37.68
2018-07-15T11:37:15.902Z,37.50
2018-07-15T11:39:44.957Z,38.14
2018-07-15T11:42:14.017Z,37.10
2018-07-15T11:44:43.571Z,37.05
2018-07-15T11:47:12.987Z,37.03
2018-07-15T11:49:42.084Z,36.81
2018-07-15T11:52:11.048Z,37.12
2018-07-15T11:54:40.170Z,37.19
2018-07-15T11:57:09.082Z,36.50
2018-07-15T11:59:38.128Z,36.80
2018-07-15T12:02:07.160Z,37.47
2018-07-15T12:04:36.203Z,37.92
2018-07-15T12:07:05.275Z,37.08
2018-07-15T12:09:34.333Z,36.58
2018-07-15T12:12:03.325Z,37.01
2018-07-15T12:14:32.389Z,37.82
2018-07-15T12:17:01.412Z,38.55
2018-07-15T12:19:30.477Z,38.96
2018-07-15T12:21:59.529Z,39.58
2018-07-15T12:24:28.480Z,38.80
2018-07-15T12:26:57.664Z,38.58
2018-07-15T12:29:26.677Z,39.19
2018-07-15T12:31:55.744Z,39.27
2018-07-15T12:34:24.812Z,39.67
2018-07-15T12:36:53.813Z,39.42
2018-07-15T12:39:22.844Z,39.53
2018-07-15T12:41:51.865Z,40.10
2018-07-15T12:44:20.840Z,40.34
2018-07-15T12:46:49.846Z,40.71
2018-07-15T12:49:18.880Z,40.73
2018-07-15T12:51:47.830Z,40.66
2018-07-15T12:54:16.805Z,41.09
2018-07-15T12:56:45.851Z,41.42
2018-07-15T12:59:14.935Z,41.81
2018-07-15T13:01:43.979Z,41.65
2018-07-15T13:04:12.944Z,42.24
2018-07-15T13:06:42.021Z,42.65
2018-07-15T13:09:11.013Z,41.71
2018-07-15T13:11:40.101Z,41.48
2018-07-15T13:14:09.165Z,41.63
2018-07-15T13:16:38.132Z,41.32
2018-07-15T13:19:07.107Z,40.71
2018-07-15T13:21:36.130Z,40.35
2018-07-15T13:24:05.131Z,40.65
2018-07-15T13:27:04.958Z,40.78
2018-07-15T13:29:33.976Z,40.08
2018-07-15T13:32:02.924Z,39.64
2018-07-15T13:34:31.941Z,40.00
2018-07-15T13:37:00.902Z,40.09
2018-07-15T13:39:29.981Z,40.54
2018-07-15T13:41:59.073Z,40.78
2018-07-15T13:44:28.025Z,40.98
2018-07-15T13:46:56.988Z,40.98
2018-07-15T13:49:26.023Z,40.24
2018-07-15T13:51:54.996Z,40.23
2018-07-15T13:54:24.140Z,39.93
2018-07-15T13:56:53.224Z,39.55
2018-07-15T13:59:22.184Z,38.84
2018-07-15T14:01:51.200Z,38.22
2018-07-15T14:04:20.373Z,36.81
2018-07-15T14:06:49.428Z,35.87
2018-07-15T14:09:18.659Z,35.00
2018-07-15T14:11:47.613Z,34.30
2018-07-15T14:14:16.652Z,33.73
2018-07-15T14:16:45.619Z,33.17
2018-07-15T14:19:14.617Z,32.92
2018-07-15T14:21:43.613Z,32.57
2018-07-15T14:24:12.837Z,32.23
2018-07-15T14:26:41.897Z,31.90
2018-07-15T14:29:10.857Z,31.79
2018-07-15T14:31:39.868Z,31.55
2018-07-15T14:34:08.883Z,31.31
2018-07-15T14:36:37.868Z,31.21
2018-07-15T14:39:07.354Z,31.13
2018-07-15T14:41:36.347Z,31.04
2018-07-15T14:44:07.353Z,31.03
2018-07-15T14:46:36.496Z,30.92
2018-07-15T14:49:05.445Z,30.83
2018-07-15T14:51:34.475Z,30.79
2018-07-15T14:54:03.463Z,30.68
2018-07-15T14:56:32.444Z,30.68
2018-07-15T14:59:01.416Z,30.76
2018-07-15T15:01:30.444Z,30.73
2018-07-15T15:03:59.549Z,30.55
2018-07-15T15:06:28.573Z,30.57
2018-07-15T15:08:57.615Z,30.56
2018-07-15T15:11:26.691Z,30.48
2018-07-15T15:13:55.700Z,30.49
2018-07-15T15:16:24.764Z,30.44
2018-07-15T15:18:53.902Z,30.49
2018-07-15T15:21:23.038Z,30.36
2018-07-15T15:23:52.079Z,30.29
2018-07-15T15:26:21.066Z,30.20
2018-07-15T15:28:50.157Z,30.10
2018-07-15T15:31:19.185Z,30.08
2018-07-15T15:33:48.205Z,30.07
2018-07-15T15:36:17.225Z,30.03
2018-07-15T15:38:46.190Z,30.03
2018-07-15T15:41:15.146Z,29.95
2018-07-15T15:43:44.113Z,29.92
2018-07-15T15:46:13.137Z,29.90
2018-07-15T15:48:42.145Z,29.87
2018-07-15T15:51:11.124Z,29.82
2018-07-15T15:53:40.152Z,29.77
2018-07-15T15:56:09.168Z,29.77
2018-07-15T15:58:38.125Z,29.66
2018-07-15T16:01:07.100Z,29.62
2018-07-15T16:03:36.141Z,29.58
2018-07-15T16:06:05.196Z,29.52
2018-07-15T16:08:34.182Z,29.48
2018-07-15T16:11:03.261Z,29.41
2018-07-15T16:13:32.278Z,29.34
2018-07-15T16:16:01.393Z,29.26
2018-07-15T16:18:30.448Z,29.23
2018-07-15T16:20:59.465Z,29.18
2018-07-15T16:23:28.457Z,29.11
2018-07-15T16:25:57.439Z,29.08
2018-07-15T16:28:26.492Z,29.01
2018-07-15T16:30:56.017Z,28.83
2018-07-15T16:33:25.040Z,28.73
2018-07-15T16:35:53.983Z,28.65
2018-07-15T16:38:23.009Z,28.59
2018-07-15T16:40:51.988Z,28.54
2018-07-15T16:43:20.956Z,28.46
2018-07-15T16:45:50.012Z,28.32
2018-07-15T16:48:19.089Z,28.23
2018-07-15T16:50:48.112Z,28.14
2018-07-15T16:53:17.043Z,28.09
2018-07-15T16:55:46.163Z,27.97
2018-07-15T16:58:15.224Z,27.89
2018-07-15T17:00:44.184Z,27.84
2018-07-15T17:03:13.187Z,27.70
2018-07-15T17:05:42.169Z,27.61
2018-07-15T17:08:11.147Z,27.59
2018-07-15T17:10:40.161Z,27.52
2018-07-15T17:13:09.188Z,27.44
2018-07-15T17:15:38.201Z,27.33
2018-07-15T17:18:07.272Z,27.25
2018-07-15T17:20:36.369Z,27.21
2018-07-15T17:23:05.438Z,27.11
2018-07-15T17:25:34.498Z,27.06
2018-07-15T17:28:03.776Z,26.95
2018-07-15T17:30:32.826Z,26.86
2018-07-15T17:33:01.801Z,26.78
2018-07-15T17:35:30.846Z,26.75
2018-07-15T17:37:59.879Z,26.67
2018-07-15T17:40:28.926Z,26.56
2018-07-15T17:42:58.003Z,26.44
2018-07-15T17:45:26.968Z,26.27
2018-07-15T17:47:55.999Z,26.17
2018-07-15T17:50:25.379Z,26.03
2018-07-15T17:52:54.451Z,25.89
2018-07-15T17:55:23.464Z,25.72
2018-07-15T17:57:52.537Z,25.62
2018-07-15T18:00:21.530Z,25.45
2018-07-15T18:02:50.531Z,25.35
2018-07-15T18:05:50.388Z,25.23
2018-07-15T18:08:19.345Z,25.06
2018-07-15T18:10:48.807Z,24.96
2018-07-15T18:13:18.009Z,24.87
2018-07-15T18:15:47.119Z,24.81
2018-07-15T18:18:16.190Z,24.75
2018-07-15T18:20:45.253Z,24.71
2018-07-15T18:23:14.252Z,24.64
2018-07-15T18:25:43.280Z,24.55
2018-07-15T18:28:12.341Z,24.46
2018-07-15T18:30:41.402Z,24.38
2018-07-15T18:33:10.585Z,24.29
2018-07-15T18:35:39.662Z,24.21
2018-07-15T18:38:08.711Z,24.14
2018-07-15T18:40:37.769Z,24.01
2018-07-15T18:43:06.728Z,23.94
2018-07-15T18:45:35.716Z,23.90
2018-07-15T18:48:04.691Z,23.86
2018-07-15T18:50:33.778Z,23.83
2018-07-15T18:53:02.851Z,23.77
2018-07-15T18:55:31.920Z,23.70
2018-07-15T18:58:01.000Z,23.68
2018-07-15T19:00:30.050Z,23.66
2018-07-15T19:02:59.037Z,23.64
2018-07-15T19:05:28.066Z,23.66
2018-07-15T19:07:57.125Z,23.68
2018-07-15T19:10:26.098Z,23.73
2018-07-15T19:12:55.417Z,23.83
2018-07-15T19:15:24.456Z,23.90
2018-07-15T19:17:53.494Z,23.91
2018-07-15T19:20:22.588Z,23.98
2018-07-15T19:22:51.601Z,24.05
2018-07-15T19:25:20.624Z,24.09
2018-07-15T19:27:49.681Z,24.15
2018-07-15T19:30:18.738Z,24.23
2018-07-15T19:32:47.826Z,24.32
2018-07-15T19:35:16.802Z,24.46
2018-07-15T19:37:45.768Z,24.48
2018-07-15T19:40:14.787Z,24.59
2018-07-15T19:42:43.887Z,24.61
2018-07-15T19:45:12.924Z,24.74
2018-07-15T19:47:41.990Z,24.85
2018-07-15T19:50:11.113Z,24.92
2018-07-15T19:52:40.085Z,24.91
2018-07-15T19:55:09.024Z,24.91
2018-07-15T19:57:38.005Z,24.97
2018-07-15T20:00:07.120Z,24.99
2018-07-15T20:02:36.130Z,24.96
2018-07-15T20:05:05.160Z,24.91
2018-07-15T20:07:34.293Z,24.94
2018-07-15T20:10:03.256Z,24.98
2018-07-15T20:12:32.346Z,24.88
2018-07-15T20:15:01.389Z,24.79
2018-07-15T20:17:30.413Z,24.79
2018-07-15T20:19:59.526Z,24.74
2018-07-15T20:22:28.500Z,24.72
2018-07-15T20:24:57.678Z,24.65
2018-07-15T20:27:26.746Z,24.66
2018-07-15T20:29:55.728Z,24.63
2018-07-15T20:32:24.781Z,24.60
2018-07-15T20:34:53.919Z,24.57
2018-07-15T20:37:22.975Z,24.54
2018-07-15T20:39:52.095Z,24.42
2018-07-15T20:42:21.232Z,24.33
2018-07-15T20:44:50.273Z,24.33
2018-07-15T20:47:19.253Z,24.27
2018-07-15T20:49:48.285Z,24.20
2018-07-15T20:52:17.340Z,24.17
2018-07-15T20:54:46.465Z,24.08
2018-07-15T20:57:15.610Z,24.07
2018-07-15T20:59:44.656Z,24.06
2018-07-15T21:02:13.762Z,24.00
2018-07-15T21:04:42.760Z,23.94
2018-07-15T21:07:11.805Z,23.91
2018-07-15T21:09:40.826Z,23.92
2018-07-15T21:12:09.924Z,23.88
2018-07-15T21:14:38.908Z,23.82
2018-07-15T21:17:08.064Z,23.74
2018-07-15T21:19:37.026Z,23.71
2018-07-15T21:22:06.070Z,23.71
2018-07-15T21:24:35.066Z,23.68
2018-07-15T21:27:04.171Z,23.70
2018-07-15T21:32:16.738Z,23.72
2018-07-15T21:34:45.789Z,23.73
2018-07-15T21:37:14.795Z,23.71
2018-07-15T21:39:43.830Z,23.67
2018-07-15T21:42:12.889Z,23.61
2018-07-15T21:44:41.967Z,23.60
2018-07-15T21:47:11.010Z,23.54
2018-07-15T21:49:39.980Z,23.60
2018-07-15T21:52:09.117Z,23.53
2018-07-15T21:54:38.088Z,23.42
2018-07-15T21:57:07.221Z,23.48
2018-07-15T21:59:36.301Z,23.42
2018-07-15T22:02:05.384Z,23.36
2018-07-15T22:04:34.437Z,23.39
2018-07-15T22:07:14.481Z,23.41
2018-07-15T22:09:55.568Z,23.34
2018-07-15T22:12:24.563Z,23.29
2018-07-15T22:14:53.709Z,23.27
2018-07-15T22:17:22.795Z,23.19
2018-07-15T22:19:51.885Z,23.14
2018-07-15T22:22:20.937Z,23.15
2018-07-15T22:24:49.895Z,23.19
2018-07-15T22:27:18.961Z,23.26
2018-07-15T22:29:47.972Z,23.29
2018-07-15T22:32:17.012Z,23.27
2018-07-15T22:34:45.968Z,23.25
2018-07-15T22:37:14.929Z,23.22
2018-07-15T22:39:44.139Z,23.17
2018-07-15T22:42:13.161Z,23.14
2018-07-15T22:44:42.130Z,23.10
2018-07-15T22:47:11.092Z,23.06
2018-07-15T22:49:40.139Z,23.03
2018-07-15T22:52:09.153Z,22.96
2018-07-15T22:54:38.141Z,23.02
2018-07-15T22:57:07.222Z,22.98
2018-07-15T22:59:36.329Z,22.94
2018-07-15T23:02:05.342Z,23.00
2018-07-15T23:05:50.104Z,23.02
2018-07-15T23:08:19.100Z,22.97
2018-07-15T23:10:48.082Z,23.01
2018-07-15T23:13:17.541Z,22.94
2018-07-15T23:15:46.686Z,22.89
2018-07-15T23:18:15.759Z,22.86
2018-07-15T23:20:45.472Z,22.81
2018-07-15T23:23:14.931Z,22.83
2018-07-15T23:25:43.941Z,22.83
2018-07-15T23:28:14.077Z,22.76
2018-07-15T23:30:43.965Z,22.73
2018-07-15T23:33:13.164Z,22.78
2018-07-15T23:35:42.174Z,22.89
2018-07-15T23:38:11.268Z,22.93
2018-07-15T23:40:40.354Z,22.96
2018-07-15T23:43:09.494Z,23.01
2018-07-15T23:45:38.477Z,22.98
2018-07-15T23:48:07.577Z,22.94
2018-07-15T23:50:36.665Z,22.96
2018-07-15T23:53:05.760Z,22.95
2018-07-15T23:55:34.758Z,23.03
2018-07-15T23:58:03.755Z,23.04
